Terminal Aerodrome Forecast
Issued by NWS

Home | Current Version | Previous Version | Text Only | Print | Product List | Glossary On
Versions: 1 2 3 4 5 6 7 8 9 10 11 12 13 14 15 16 17 18 19 20 21 22 23 24 25 26 27 28 29 30 31 32 33 34 35 36 37 38 39 40 41 42 43 44
000
FTUS45 KBOU 221731
TAFBJC
TAF
KBJC 221731Z 2218/2318 14007KT P6SM VCSH SCT060 BKN100
     FM222000 14009KT P6SM VCTS SCT050 BKN080CB
      TEMPO 2220/2224 VRB20G35KT 4SM TSRA BKN050CB
     FM230000 24007KT P6SM VCSH SCT035 OVC060
      TEMPO 2300/2304 VRB15G25KT 4SM TSRA BKN035CB
     FM230400 31006KT P6SM SCT050 OVC080 PROB30 2304/2308 -SHRA
      BKN050
     FM230800 31004KT P6SM SCT080 BKN120
     FM231500 28009KT P6SM SCT080 SCT120=

USA.gov is the U.S. government's official web portal to all federal, state and local government web resources and services.